Time;durP1;ratioP1;P1;durP2;ratioP2;P2;SDS_P1;SDS_P2;PMS_P1;PMS_P2;Temp;Humidity;BMP_temperature;BMP_pressure;BME280_temperature;BME280_humidity;BME280_pressure;Samples;Min_cycle;Max_cycle;Signal;HPM_P1;HPM_P2
2023/05/30 00:01:26;;;;;;;13.93;3.83;;;13.70;57.80;;;;;;5119764;27;20097;-68
2023/05/30 00:03:51;;;;;;;10.68;2.80;;;13.70;58.10;;;;;;5073098;28;20040;-68
2023/05/30 00:06:17;;;;;;;11.02;2.83;;;13.70;58.10;;;;;;5089471;28;20038;-68
2023/05/30 00:08:44;;;;;;;9.27;2.92;;;13.70;58.00;;;;;;5116694;27;20072;-68
2023/05/30 00:11:13;;;;;;;10.63;3.03;;;13.70;58.00;;;;;;5089670;28;20089;-68
2023/05/30 00:13:42;;;;;;;8.38;3.00;;;13.70;58.20;;;;;;5089833;28;20135;-69
2023/05/30 00:16:08;;;;;;;11.77;3.38;;;13.70;58.40;;;;;;5089631;28;20097;-69
2023/05/30 00:18:37;;;;;;;9.70;3.35;;;13.70;58.60;;;;;;5122666;27;20093;-69
2023/05/30 00:21:06;;;;;;;11.35;3.35;;;13.60;58.60;;;;;;5089611;28;20399;-69
2023/05/30 00:23:33;;;;;;;11.07;3.22;;;13.60;58.80;;;;;;5122995;27;20097;-69
2023/05/30 00:26:03;;;;;;;7.88;2.90;;;13.50;58.80;;;;;;5072388;28;20044;-70
2023/05/30 00:28:28;;;;;;;13.05;2.97;;;13.40;58.90;;;;;;5089581;28;20143;-69
2023/05/30 00:30:55;;;;;;;14.55;3.67;;;13.40;59.10;;;;;;5089773;28;20522;-69
2023/05/30 00:33:21;;;;;;;7.43;2.80;;;13.40;59.40;;;;;;5071982;28;20046;-69
2023/05/30 00:35:46;;;;;;;9.45;2.92;;;13.40;59.40;;;;;;5089536;28;20191;-69
2023/05/30 00:38:12;;;;;;;10.38;3.47;;;13.40;59.30;;;;;;5089256;28;20419;-68
2023/05/30 00:40:38;;;;;;;11.63;3.17;;;13.40;59.40;;;;;;5089328;28;20491;-68
2023/05/30 00:43:04;;;;;;;9.38;2.95;;;13.40;59.60;;;;;;5088955;28;20093;-68
2023/05/30 00:45:29;;;;;;;9.82;3.30;;;13.40;59.60;;;;;;5114658;28;20033;-68
2023/05/30 00:47:55;;;;;;;8.65;2.97;;;13.40;59.70;;;;;;5072306;28;20044;-68
2023/05/30 00:50:26;;;;;;;7.97;3.08;;;13.40;59.70;;;;;;5114279;28;20043;-68
2023/05/30 00:52:53;;;;;;;9.35;2.78;;;13.40;59.70;;;;;;5089359;28;20040;-68
2023/05/30 00:55:20;;;;;;;7.07;2.45;;;13.40;59.50;;;;;;5110651;27;20036;-69
2023/05/30 00:57:46;;;;;;;7.30;2.78;;;13.40;59.60;;;;;;5099473;28;20045;-69
2023/05/30 01:00:14;;;;;;;11.60;3.65;;;13.50;59.80;;;;;;5119184;27;20036;-69
2023/05/30 01:02:43;;;;;;;9.80;3.08;;;13.50;60.00;;;;;;5122245;27;20101;-68
2023/05/30 01:05:12;;;;;;;8.63;2.85;;;13.50;59.90;;;;;;5076362;28;20048;-68
2023/05/30 01:07:44;;;;;;;9.45;3.60;;;13.50;59.90;;;;;;5123002;27;20036;-68
2023/05/30 01:10:16;;;;;;;9.88;3.25;;;13.50;59.70;;;;;;5124796;27;20379;-68
2023/05/30 01:12:45;;;;;;;11.00;3.33;;;13.60;59.70;;;;;;5119641;27;20394;-69
2023/05/30 01:15:35;;;;;;;11.90;3.72;;;13.50;59.50;;;;;;5124588;27;20372;-68
2023/05/30 01:18:06;;;;;;;5.35;2.40;;;13.50;59.50;;;;;;5092276;28;20096;-68
2023/05/30 01:20:38;;;;;;;9.05;2.85;;;13.50;59.50;;;;;;5115451;27;20036;-68
2023/05/30 01:23:14;;;;;;;9.80;2.85;;;13.50;59.50;;;;;;5092983;28;20068;-69
2023/05/30 01:26:19;;;;;;;7.15;2.80;;;13.50;59.50;;;;;;5093031;28;20044;-68
2023/05/30 01:28:46;;;;;;;7.68;2.65;;;13.50;59.40;;;;;;5034369;28;20110;-68
2023/05/30 01:31:12;;;;;;;7.57;2.70;;;13.50;59.30;;;;;;5034996;28;20045;-68
2023/05/30 01:33:39;;;;;;;8.10;3.13;;;13.50;59.30;;;;;;5060075;28;20344;-68
2023/05/30 01:36:06;;;;;;;6.70;2.78;;;13.50;59.40;;;;;;5092792;28;20517;-68
2023/05/30 01:38:34;;;;;;;7.55;3.10;;;13.50;59.50;;;;;;5092492;28;20040;-68
2023/05/30 01:41:01;;;;;;;9.63;3.30;;;13.50;59.50;;;;;;5115668;27;20128;-68
2023/05/30 01:43:41;;;;;;;10.70;3.35;;;13.50;59.30;;;;;;5112912;27;20418;-68
2023/05/30 01:46:19;;;;;;;8.32;3.15;;;13.50;59.10;;;;;;5075084;28;20040;-68
2023/05/30 01:48:57;;;;;;;8.25;3.17;;;13.50;59.40;;;;;;5118618;27;21608;-68
2023/05/30 01:51:29;;;;;;;5.43;2.80;;;13.50;59.40;;;;;;5123001;27;20123;-68
2023/05/30 01:54:02;;;;;;;7.22;2.80;;;13.50;59.30;;;;;;5092053;28;20028;-68
2023/05/30 01:56:28;;;;;;;9.50;3.67;;;13.50;59.20;;;;;;5075859;28;20055;-68
2023/05/30 01:58:55;;;;;;;9.25;3.72;;;13.50;59.20;;;;;;5075275;28;20119;-68
2023/05/30 02:01:24;;;;;;;8.55;3.38;;;13.50;59.30;;;;;;5092496;28;20039;-69
2023/05/30 02:03:50;;;;;;;8.43;2.95;;;13.50;59.30;;;;;;5092346;28;20487;-68
2023/05/30 02:06:16;;;;;;;8.15;3.05;;;13.50;59.30;;;;;;5091633;28;20050;-68
2023/05/30 02:08:42;;;;;;;9.60;3.30;;;13.40;59.20;;;;;;5121664;27;20453;-68
2023/05/30 02:11:07;;;;;;;9.70;2.92;;;13.40;59.30;;;;;;5092077;28;20050;-68
2023/05/30 02:13:33;;;;;;;7.07;2.67;;;13.50;59.40;;;;;;5075103;28;20047;-68
2023/05/30 02:15:59;;;;;;;6.25;2.85;;;13.40;59.30;;;;;;5075151;28;20044;-68
2023/05/30 02:18:27;;;;;;;8.70;2.67;;;13.40;59.40;;;;;;5125403;27;20115;-68
2023/05/30 02:20:54;;;;;;;5.82;2.60;;;13.40;59.20;;;;;;5091834;28;20036;-68
2023/05/30 02:23:21;;;;;;;7.15;2.65;;;13.40;59.10;;;;;;5117461;27;20490;-68
2023/05/30 02:25:47;;;;;;;5.30;2.70;;;13.40;59.00;;;;;;5091606;28;20032;-68
2023/05/30 02:28:12;;;;;;;6.10;2.40;;;13.50;59.20;;;;;;5122141;27;20089;-68
2023/05/30 02:30:38;;;;;;;7.90;2.85;;;13.50;59.20;;;;;;5073319;28;20040;-68
2023/05/30 02:33:04;;;;;;;6.00;3.00;;;13.50;59.20;;;;;;5101634;28;20510;-68
2023/05/30 02:35:30;;;;;;;7.32;2.83;;;13.50;59.20;;;;;;5117111;27;20514;-68
2023/05/30 02:37:55;;;;;;;5.20;2.60;;;13.50;59.10;;;;;;5091620;28;20492;-68
2023/05/30 02:40:21;;;;;;;5.75;2.50;;;13.60;59.20;;;;;;5074154;28;20069;-68
2023/05/30 02:42:47;;;;;;;6.82;2.60;;;13.60;59.00;;;;;;5091449;28;20040;-68
2023/05/30 02:45:13;;;;;;;9.18;3.10;;;13.60;58.80;;;;;;5091107;28;20044;-68
2023/05/30 02:47:40;;;;;;;7.93;2.88;;;13.60;58.70;;;;;;5090964;28;20044;-68
2023/05/30 02:50:07;;;;;;;6.82;2.42;;;13.60;58.70;;;;;;5074752;28;20043;-68
2023/05/30 02:52:32;;;;;;;7.30;2.67;;;13.60;58.70;;;;;;5111742;27;20373;-68
2023/05/30 02:54:58;;;;;;;6.35;3.03;;;13.70;58.80;;;;;;5074260;28;20047;-68
2023/05/30 02:57:24;;;;;;;6.88;2.53;;;13.60;58.60;;;;;;5116570;27;20028;-69
2023/05/30 02:59:51;;;;;;;5.85;2.45;;;13.60;58.70;;;;;;5074093;28;20133;-69
2023/05/30 03:02:16;;;;;;;8.75;2.97;;;13.70;58.70;;;;;;5121970;27;20040;-69
2023/05/30 03:04:46;;;;;;;5.70;2.58;;;13.70;58.60;;;;;;5092074;28;20036;-69
2023/05/30 03:07:18;;;;;;;6.18;2.45;;;13.70;58.60;;;;;;5121709;27;20037;-69
2023/05/30 03:09:44;;;;;;;8.00;2.90;;;13.70;58.50;;;;;;5090378;28;20034;-69
2023/05/30 03:12:10;;;;;;;7.28;2.53;;;13.70;58.50;;;;;;5091056;28;20043;-69
2023/05/30 03:14:36;;;;;;;7.40;2.72;;;13.70;58.30;;;;;;5074281;28;20044;-69
2023/05/30 03:17:03;;;;;;;7.05;2.67;;;13.70;58.30;;;;;;5121996;27;20044;-69
2023/05/30 03:19:29;;;;;;;6.45;2.70;;;13.70;58.30;;;;;;5101431;28;20484;-69
2023/05/30 03:21:55;;;;;;;10.00;2.80;;;13.70;58.30;;;;;;5111414;27;20051;-69
2023/05/30 03:24:21;;;;;;;6.50;2.53;;;13.70;58.40;;;;;;5124380;27;20042;-69
2023/05/30 03:26:47;;;;;;;6.43;2.47;;;13.70;58.30;;;;;;5091681;28;20396;-68
2023/05/30 03:29:13;;;;;;;5.78;2.47;;;13.70;58.30;;;;;;5118531;27;20455;-69
2023/05/30 03:31:38;;;;;;;8.00;3.13;;;13.70;58.40;;;;;;5122389;27;20040;-69
2023/05/30 03:34:04;;;;;;;6.80;2.28;;;13.70;58.40;;;;;;5073768;28;20035;-68
2023/05/30 03:36:30;;;;;;;6.95;2.63;;;13.70;58.40;;;;;;5089863;28;20066;-68
2023/05/30 03:38:56;;;;;;;6.03;2.55;;;13.70;58.40;;;;;;5089988;28;20165;-68
2023/05/30 03:41:22;;;;;;;6.28;2.90;;;13.60;58.40;;;;;;5057235;28;20368;-68
2023/05/30 03:43:48;;;;;;;4.93;2.50;;;13.70;58.40;;;;;;5123640;27;20040;-67
2023/05/30 03:46:19;;;;;;;7.32;2.60;;;13.70;58.30;;;;;;5070945;28;20043;-68
2023/05/30 03:48:47;;;;;;;7.78;2.28;;;13.70;58.30;;;;;;5115838;27;20063;-66
2023/05/30 03:51:13;;;;;;;7.32;3.17;;;13.70;58.30;;;;;;5090009;28;20029;-66
2023/05/30 03:53:41;;;;;;;6.15;2.22;;;13.70;58.40;;;;;;5089922;28;20101;-66
2023/05/30 03:56:06;;;;;;;7.07;2.50;;;13.70;58.40;;;;;;5091109;28;20047;-66
2023/05/30 03:58:32;;;;;;;8.73;3.10;;;13.70;58.40;;;;;;5072931;28;20403;-66
2023/05/30 04:01:00;;;;;;;5.45;2.53;;;13.70;58.50;;;;;;5090304;28;20078;-66
2023/05/30 04:03:28;;;;;;;7.47;2.70;;;13.70;58.40;;;;;;5070726;28;20032;-66
2023/05/30 04:05:55;;;;;;;5.78;2.22;;;13.70;58.40;;;;;;5118238;27;20045;-65
2023/05/30 04:08:25;;;;;;;10.55;3.20;;;13.70;58.40;;;;;;5073180;28;20036;-65
2023/05/30 04:10:52;;;;;;;12.38;3.33;;;13.70;58.50;;;;;;5107898;27;20134;-66
2023/05/30 04:13:17;;;;;;;7.38;3.03;;;13.80;58.70;;;;;;5096268;28;20059;-66
2023/05/30 04:15:43;;;;;;;6.93;2.97;;;13.80;58.70;;;;;;5090034;28;20491;-66
2023/05/30 04:18:10;;;;;;;6.80;3.25;;;13.80;58.80;;;;;;5088944;28;20043;-66
2023/05/30 04:20:35;;;;;;;8.48;2.90;;;13.80;58.70;;;;;;5091082;28;20353;-66
2023/05/30 04:23:01;;;;;;;6.28;2.53;;;13.80;58.80;;;;;;5089313;28;20039;-66
2023/05/30 04:25:28;;;;;;;5.85;2.47;;;13.80;58.70;;;;;;5121638;27;20090;-66
2023/05/30 04:27:54;;;;;;;9.02;2.85;;;13.80;58.70;;;;;;5112665;27;20036;-66
2023/05/30 04:30:20;;;;;;;10.57;2.90;;;13.80;58.80;;;;;;5122408;27;20114;-66
2023/05/30 04:32:46;;;;;;;9.45;3.20;;;13.80;58.90;;;;;;5112538;27;20124;-66
2023/05/30 04:35:16;;;;;;;9.10;3.08;;;13.80;59.10;;;;;;5089637;28;20052;-66
2023/05/30 04:37:44;;;;;;;9.38;3.10;;;13.80;59.10;;;;;;5088733;28;20044;-66
2023/05/30 04:40:13;;;;;;;8.90;2.70;;;13.80;59.10;;;;;;5072946;28;20135;-66
2023/05/30 04:42:42;;;;;;;6.00;2.65;;;13.80;59.10;;;;;;5072275;28;20040;-66
2023/05/30 04:45:16;;;;;;;7.35;2.80;;;13.80;59.00;;;;;;5121821;28;20383;-66
2023/05/30 04:47:44;;;;;;;7.88;2.72;;;13.80;59.10;;;;;;5088969;28;20123;-66
2023/05/30 04:50:12;;;;;;;8.32;3.35;;;13.80;59.20;;;;;;5088917;28;20524;-66
2023/05/30 04:52:37;;;;;;;11.20;3.75;;;13.80;59.10;;;;;;5089292;28;20032;-66
2023/05/30 04:55:03;;;;;;;8.32;3.17;;;13.90;59.20;;;;;;5120904;28;20036;-66
2023/05/30 04:57:29;;;;;;;9.50;4.45;;;13.90;59.30;;;;;;5088403;28;20054;-66
2023/05/30 04:59:55;;;;;;;10.82;2.97;;;13.90;59.30;;;;;;5089605;28;20123;-66
2023/05/30 05:02:21;;;;;;;11.35;3.45;;;13.90;59.40;;;;;;5111244;28;20043;-66
2023/05/30 05:04:47;;;;;;;7.65;3.63;;;13.90;59.40;;;;;;5078280;28;20032;-67
2023/05/30 05:07:12;;;;;;;8.57;3.33;;;13.90;59.50;;;;;;5088988;28;20052;-66
2023/05/30 05:09:38;;;;;;;11.63;3.72;;;13.90;59.50;;;;;;5122712;28;20399;-67
2023/05/30 05:12:04;;;;;;;13.50;4.07;;;13.90;59.50;;;;;;5108292;28;20032;-66
2023/05/30 05:14:30;;;;;;;10.63;4.05;;;13.90;59.60;;;;;;5120871;28;20039;-67
2023/05/30 05:16:57;;;;;;;10.32;3.20;;;13.90;59.60;;;;;;5089640;28;20118;-67
2023/05/30 05:19:22;;;;;;;10.40;3.85;;;13.90;59.70;;;;;;5106768;28;20044;-67
2023/05/30 05:21:48;;;;;;;10.05;3.72;;;13.90;59.90;;;;;;5089704;28;20105;-66
2023/05/30 05:24:14;;;;;;;7.97;3.30;;;13.90;60.00;;;;;;5089300;28;20040;-67
2023/05/30 05:26:40;;;;;;;9.07;3.33;;;13.80;59.80;;;;;;5118951;28;20163;-68
2023/05/30 05:29:05;;;;;;;10.10;4.20;;;13.80;59.80;;;;;;5116976;28;20036;-68
2023/05/30 05:31:33;;;;;;;10.30;3.70;;;13.80;60.00;;;;;;5089253;28;20042;-69
2023/05/30 05:33:58;;;;;;;6.78;3.10;;;13.80;60.30;;;;;;5089424;28;20047;-69
2023/05/30 05:36:24;;;;;;;8.60;3.33;;;13.90;60.20;;;;;;5072917;28;20547;-69
2023/05/30 05:38:50;;;;;;;9.60;3.05;;;13.90;60.30;;;;;;5089456;28;20380;-69
2023/05/30 05:41:16;;;;;;;12.93;3.70;;;13.90;60.30;;;;;;5091003;28;20126;-68
2023/05/30 05:43:42;;;;;;;10.77;3.30;;;13.90;60.40;;;;;;5075854;28;20047;-69
2023/05/30 05:46:07;;;;;;;6.55;3.05;;;13.90;60.30;;;;;;5120862;27;20047;-69
2023/05/30 05:48:33;;;;;;;11.40;3.85;;;14.00;60.30;;;;;;5075274;28;20044;-69
2023/05/30 05:50:59;;;;;;;11.27;3.60;;;14.00;60.20;;;;;;5124580;27;20048;-69
2023/05/30 05:53:25;;;;;;;12.25;3.47;;;14.10;60.40;;;;;;5124834;27;20036;-69
2023/05/30 05:55:52;;;;;;;10.25;3.55;;;14.10;60.30;;;;;;5076421;28;20048;-68
2023/05/30 05:58:17;;;;;;;10.48;3.50;;;14.10;60.40;;;;;;5076288;28;20044;-68
2023/05/30 06:00:43;;;;;;;13.77;3.97;;;14.10;60.60;;;;;;5073046;28;20402;-68
2023/05/30 06:03:09;;;;;;;9.07;3.60;;;14.10;60.80;;;;;;5112958;27;20088;-68
2023/05/30 06:05:34;;;;;;;10.07;3.92;;;14.10;60.70;;;;;;5092228;28;20048;-68
2023/05/30 06:08:00;;;;;;;8.88;3.03;;;14.20;60.60;;;;;;5093661;28;20126;-68
2023/05/30 06:10:27;;;;;;;9.50;3.22;;;14.20;60.70;;;;;;5118295;27;20040;-69
2023/05/30 06:12:53;;;;;;;9.52;3.63;;;14.20;60.70;;;;;;5092233;28;20043;-69
2023/05/30 06:15:19;;;;;;;12.65;3.83;;;14.20;60.70;;;;;;5092025;28;20048;-69
2023/05/30 06:17:45;;;;;;;11.13;3.58;;;14.30;60.80;;;;;;5075433;28;20040;-69
2023/05/30 06:20:11;;;;;;;8.80;2.97;;;14.50;61.10;;;;;;5115089;27;20040;-69
2023/05/30 06:22:37;;;;;;;10.43;3.28;;;14.30;60.90;;;;;;5120181;27;20129;-69
2023/05/30 06:25:04;;;;;;;10.45;3.33;;;14.30;60.90;;;;;;5119968;27;20044;-69
2023/05/30 06:27:30;;;;;;;8.77;3.50;;;14.30;60.90;;;;;;5111560;27;20037;-69
2023/05/30 06:29:56;;;;;;;9.82;3.63;;;14.20;60.80;;;;;;5072297;28;20044;-69
2023/05/30 06:32:21;;;;;;;10.90;3.60;;;14.30;61.00;;;;;;5072616;28;20166;-69
2023/05/30 06:34:47;;;;;;;11.15;3.45;;;14.30;61.20;;;;;;5072762;28;20047;-69
2023/05/30 06:37:14;;;;;;;10.18;3.25;;;14.30;61.40;;;;;;5089443;28;20511;-69
2023/05/30 06:39:40;;;;;;;8.77;3.10;;;14.30;61.70;;;;;;5072391;28;20162;-69
2023/05/30 06:42:10;;;;;;;9.45;2.80;;;14.30;62.00;;;;;;5089348;28;20411;-69
2023/05/30 06:44:35;;;;;;;13.63;3.05;;;14.30;62.10;;;;;;5089487;28;20075;-69
2023/05/30 06:47:03;;;;;;;8.50;2.60;;;14.30;62.00;;;;;;5075238;28;20087;-66
2023/05/30 06:49:30;;;;;;;8.05;3.35;;;14.30;61.60;;;;;;5075610;28;20087;-68
2023/05/30 06:51:56;;;;;;;6.80;2.72;;;14.40;61.80;;;;;;5092298;28;20028;-68
2023/05/30 06:54:22;;;;;;;17.17;4.00;;;14.40;61.90;;;;;;5092203;28;20058;-68
2023/05/30 06:56:47;;;;;;;8.18;3.08;;;14.40;61.90;;;;;;5092326;28;20051;-68
2023/05/30 06:59:13;;;;;;;6.15;2.50;;;14.50;61.70;;;;;;5092558;28;20032;-68
2023/05/30 07:01:39;;;;;;;10.38;3.47;;;14.50;61.80;;;;;;5092097;28;20044;-69
2023/05/30 07:04:05;;;;;;;9.60;3.03;;;14.50;61.70;;;;;;5090550;28;20040;-70
2023/05/30 07:06:31;;;;;;;10.48;3.00;;;14.60;61.80;;;;;;5057742;28;20098;-69
2023/05/30 07:08:57;;;;;;;8.45;2.83;;;14.60;62.10;;;;;;5119990;27;20111;-69
2023/05/30 07:11:23;;;;;;;8.05;3.08;;;14.60;62.00;;;;;;5092868;28;20067;-69
2023/05/30 07:13:49;;;;;;;13.48;3.50;;;14.60;61.90;;;;;;5093077;28;20040;-69
2023/05/30 07:16:15;;;;;;;9.48;3.15;;;14.60;62.00;;;;;;5110939;27;20535;-69
2023/05/30 07:18:40;;;;;;;7.35;2.70;;;14.60;62.00;;;;;;5090462;28;20142;-69
2023/05/30 07:21:07;;;;;;;6.78;2.78;;;14.60;62.00;;;;;;5075048;28;20076;-68
2023/05/30 07:23:34;;;;;;;9.77;3.60;;;14.60;62.00;;;;;;5091471;28;20077;-68
2023/05/30 07:26:00;;;;;;;9.18;2.85;;;14.60;62.20;;;;;;5091515;28;20044;-68
2023/05/30 07:28:26;;;;;;;6.18;3.05;;;14.60;62.00;;;;;;5074667;28;20043;-68
2023/05/30 07:30:52;;;;;;;6.45;2.58;;;14.60;62.00;;;;;;5091291;28;20043;-68
2023/05/30 07:33:17;;;;;;;6.82;3.33;;;14.60;62.30;;;;;;5091400;28;20043;-69
2023/05/30 07:35:45;;;;;;;8.98;2.70;;;14.50;62.20;;;;;;5091585;28;20063;-69
2023/05/30 07:38:10;;;;;;;7.10;2.55;;;14.60;62.10;;;;;;5091461;28;20044;-69
2023/05/30 07:40:36;;;;;;;6.75;2.63;;;14.60;62.30;;;;;;5091196;28;20048;-69
2023/05/30 07:43:02;;;;;;;6.25;2.80;;;14.60;62.20;;;;;;5091315;28;20118;-68
2023/05/30 07:45:27;;;;;;;6.95;2.20;;;14.60;62.10;;;;;;5091036;28;20087;-68
2023/05/30 07:47:53;;;;;;;7.00;2.58;;;14.70;62.50;;;;;;5091056;28;20097;-68
2023/05/30 07:50:19;;;;;;;6.90;2.40;;;14.70;62.60;;;;;;5125094;27;20466;-68
2023/05/30 07:52:45;;;;;;;8.07;2.88;;;14.70;62.40;;;;;;5091217;28;20101;-68
2023/05/30 07:55:10;;;;;;;5.35;2.40;;;14.70;62.30;;;;;;5125383;27;20490;-68
2023/05/30 07:57:36;;;;;;;5.68;2.63;;;14.80;62.30;;;;;;5124914;27;20489;-68
2023/05/30 08:00:07;;;;;;;7.53;3.08;;;14.80;62.50;;;;;;5091467;28;20129;-66
2023/05/30 08:02:34;;;;;;;7.38;2.63;;;14.80;62.40;;;;;;5074586;28;20044;-66
2023/05/30 08:04:59;;;;;;;4.90;2.30;;;14.80;62.50;;;;;;5073286;28;20054;-66
2023/05/30 08:07:25;;;;;;;8.30;3.15;;;14.80;62.70;;;;;;5073757;28;20036;-66
2023/05/30 08:09:51;;;;;;;7.50;2.53;;;14.80;62.80;;;;;;5091084;28;20036;-66
2023/05/30 08:12:20;;;;;;;5.47;2.30;;;14.80;63.00;;;;;;5090886;28;20044;-67
2023/05/30 08:14:47;;;;;;;4.90;2.10;;;14.80;62.90;;;;;;5090667;28;20111;-66
2023/05/30 08:17:15;;;;;;;8.15;2.60;;;14.70;62.90;;;;;;5090708;28;20040;-66
2023/05/30 08:19:42;;;;;;;7.53;2.10;;;14.70;63.10;;;;;;5074623;28;20119;-66
2023/05/30 08:22:10;;;;;;;4.82;2.30;;;14.80;63.50;;;;;;5090349;28;20510;-66
2023/05/30 08:24:36;;;;;;;4.32;1.90;;;14.80;63.90;;;;;;5073379;28;20044;-66
2023/05/30 08:27:06;;;;;;;8.85;2.33;;;14.80;63.80;;;;;;5073701;28;20376;-66
2023/05/30 08:29:33;;;;;;;6.55;2.15;;;14.80;64.10;;;;;;5092030;28;20079;-66
2023/05/30 08:31:58;;;;;;;6.78;2.53;;;14.90;63.90;;;;;;5090817;28;20051;-66
2023/05/30 08:34:24;;;;;;;4.15;1.80;;;14.90;63.90;;;;;;5091791;28;20036;-66
2023/05/30 08:36:56;;;;;;;6.72;2.13;;;14.90;63.90;;;;;;5090436;28;20126;-68
2023/05/30 08:39:22;;;;;;;6.50;2.58;;;14.90;63.70;;;;;;5124548;27;20511;-68
2023/05/30 08:41:48;;;;;;;5.70;2.25;;;15.00;64.00;;;;;;5125009;27;20036;-68
2023/05/30 08:44:14;;;;;;;5.28;2.28;;;15.00;63.90;;;;;;5124381;27;20075;-68
2023/05/30 08:46:42;;;;;;;7.13;2.78;;;15.00;63.70;;;;;;5087292;28;20454;-68
2023/05/30 08:49:21;;;;;;;6.13;2.13;;;15.10;63.60;;;;;;5089851;28;20048;-68
2023/05/30 08:51:48;;;;;;;4.38;1.67;;;15.20;63.60;;;;;;5088149;28;20052;-66
2023/05/30 08:54:22;;;;;;;6.20;2.17;;;15.20;63.60;;;;;;5089642;28;20069;-66
2023/05/30 08:56:57;;;;;;;;;;;15.20;63.40;;;;;;5071882;28;20471;-66
2023/05/30 08:59:26;;;;;;;5.32;1.70;;;15.20;63.10;;;;;;5121730;28;20478;-66
2023/05/30 09:01:53;;;;;;;4.43;1.50;;;15.20;63.40;;;;;;5090093;28;20040;-67
2023/05/30 09:04:21;;;;;;;4.57;2.05;;;15.20;63.30;;;;;;5089529;28;20123;-66
2023/05/30 09:06:48;;;;;;;3.13;1.67;;;15.30;63.40;;;;;;5089726;28;20101;-66
2023/05/30 09:09:15;;;;;;;3.28;1.70;;;15.30;63.30;;;;;;5056257;28;20072;-66
2023/05/30 09:11:42;;;;;;;3.53;1.50;;;15.30;63.20;;;;;;5087060;28;20082;-66
2023/05/30 09:14:11;;;;;;;3.70;1.42;;;15.40;63.50;;;;;;5090395;28;20028;-66
2023/05/30 09:16:37;;;;;;;2.90;1.60;;;15.50;63.30;;;;;;5076703;28;20043;-66
2023/05/30 09:19:03;;;;;;;4.80;1.65;;;15.50;63.20;;;;;;5093770;28;20615;-66
2023/05/30 09:21:31;;;;;;;3.67;1.52;;;15.60;63.10;;;;;;5094051;28;20052;-67
2023/05/30 09:24:03;;;;;;;2.42;1.50;;;15.70;63.00;;;;;;5093942;28;20613;-66
2023/05/30 09:26:28;;;;;;;4.97;1.58;;;15.70;62.90;;;;;;5093450;28;20127;-66
2023/05/30 09:28:54;;;;;;;2.38;1.30;;;15.80;62.70;;;;;;5077053;28;20134;-67
2023/05/30 09:31:22;;;;;;;4.97;2.15;;;15.90;62.60;;;;;;5060126;28;20763;-66
2023/05/30 09:33:52;;;;;;;4.03;1.50;;;15.90;62.30;;;;;;5127495;27;20490;-66
2023/05/30 09:36:20;;;;;;;3.63;1.33;;;15.90;62.10;;;;;;5127711;27;20492;-66
2023/05/30 09:38:53;;;;;;;3.30;1.45;;;15.90;62.50;;;;;;5092717;28;20471;-66
2023/05/30 09:41:20;;;;;;;3.58;1.25;;;16.00;62.30;;;;;;5090276;28;20391;-67
2023/05/30 09:43:52;;;;;;;1.70;1.10;;;16.00;62.10;;;;;;5092559;28;20044;-67
2023/05/30 09:46:19;;;;;;;3.50;1.20;;;16.10;62.00;;;;;;5092679;28;20414;-69
2023/05/30 09:48:45;;;;;;;2.80;1.40;;;16.10;61.50;;;;;;5092535;28;20052;-67
2023/05/30 09:51:11;;;;;;;3.20;1.25;;;16.10;61.60;;;;;;5092930;28;20394;-67
2023/05/30 09:53:37;;;;;;;3.45;1.20;;;16.10;61.80;;;;;;5092718;28;20032;-67
2023/05/30 09:56:03;;;;;;;4.40;1.33;;;16.10;61.80;;;;;;5092546;28;20040;-67
2023/05/30 09:58:29;;;;;;;3.80;1.30;;;16.20;61.80;;;;;;5093836;28;20028;-67
2023/05/30 10:00:57;;;;;;;7.78;1.65;;;16.20;61.70;;;;;;5084517;28;20041;-67
2023/05/30 10:03:44;;;;;;;2.67;1.60;;;16.30;62.20;;;;;;5112054;27;20051;-67
2023/05/30 10:06:15;;;;;;;3.97;1.20;;;16.30;61.80;;;;;;5080242;28;20524;-67
2023/05/30 10:08:45;;;;;;;5.82;1.30;;;16.40;61.90;;;;;;5116811;27;20519;-67
2023/05/30 10:11:15;;;;;;;3.40;1.38;;;16.40;61.50;;;;;;5116062;27;20049;-67
2023/05/30 10:13:41;;;;;;;2.30;1.20;;;16.50;61.50;;;;;;5100409;28;20382;-67
2023/05/30 10:16:19;;;;;;;4.60;1.20;;;16.50;61.60;;;;;;5097303;28;20035;-67
2023/05/30 10:18:53;;;;;;;2.22;1.00;;;16.60;61.80;;;;;;5114595;27;20032;-67
2023/05/30 10:21:22;;;;;;;1.98;0.95;;;16.60;61.70;;;;;;5076735;28;20506;-67
2023/05/30 10:23:49;;;;;;;2.28;1.10;;;16.60;61.50;;;;;;5077059;28;20044;-67
2023/05/30 10:26:16;;;;;;;3.45;0.90;;;16.70;61.30;;;;;;5076540;28;20702;-67
2023/05/30 10:28:46;;;;;;;3.35;1.55;;;16.70;60.80;;;;;;5062060;28;20122;-67
2023/05/30 10:31:12;;;;;;;3.88;1.60;;;16.70;60.60;;;;;;5111156;27;20093;-67
2023/05/30 10:33:41;;;;;;;3.33;1.58;;;16.70;60.60;;;;;;5078391;28;20029;-67
2023/05/30 10:36:07;;;;;;;2.92;1.50;;;16.70;60.30;;;;;;5112608;27;20047;-69
2023/05/30 10:38:44;;;;;;;3.28;1.58;;;16.70;60.50;;;;;;5112392;27;20044;-69
2023/05/30 10:41:29;;;;;;;3.03;1.38;;;16.70;60.80;;;;;;5077939;28;20048;-69
2023/05/30 10:44:04;;;;;;;2.35;1.10;;;16.70;61.30;;;;;;5078112;28;20079;-69
2023/05/30 10:47:06;;;;;;;1.83;1.23;;;16.60;61.00;;;;;;5078799;28;20365;-69
2023/05/30 10:49:32;;;;;;;5.85;1.35;;;16.60;61.10;;;;;;5080648;28;20044;-69
2023/05/30 10:52:09;;;;;;;1.55;0.90;;;16.60;60.80;;;;;;5069049;28;20494;-69
2023/05/30 10:54:36;;;;;;;2.22;0.90;;;16.60;60.20;;;;;;5066383;28;20409;-69
2023/05/30 10:57:28;;;;;;;1.80;0.75;;;16.60;60.70;;;;;;5114459;27;20130;-67
2023/05/30 11:00:09;;;;;;;1.15;0.70;;;16.50;60.00;;;;;;5115250;27;20072;-67
2023/05/30 11:02:37;;;;;;;2.90;0.90;;;16.50;60.40;;;;;;5080649;28;20101;-67
2023/05/30 11:05:08;;;;;;;1.77;0.90;;;16.50;60.20;;;;;;5113271;27;20040;-67
2023/05/30 11:07:38;;;;;;;2.05;0.80;;;16.60;60.20;;;;;;5115046;27;20127;-66
2023/05/30 11:10:10;;;;;;;2.25;0.80;;;16.60;60.10;;;;;;5114537;27;20035;-66
2023/05/30 11:12:42;;;;;;;2.00;0.70;;;16.60;59.90;;;;;;5080194;28;20066;-66
2023/05/30 11:15:08;;;;;;;2.25;0.75;;;16.70;59.80;;;;;;5098531;28;20114;-66
2023/05/30 11:17:35;;;;;;;1.10;0.77;;;16.70;59.60;;;;;;5079843;28;20541;-66
2023/05/30 11:20:09;;;;;;;2.58;0.80;;;16.70;59.80;;;;;;5117128;27;20450;-66
2023/05/30 11:22:37;;;;;;;1.30;0.80;;;16.70;59.90;;;;;;5100209;28;20101;-66
2023/05/30 11:25:25;;;;;;;1.88;0.60;;;16.60;59.80;;;;;;5083751;28;20418;-67
2023/05/30 11:28:12;;;;;;;1.33;0.80;;;16.80;59.80;;;;;;5082736;28;20040;-69
2023/05/30 11:30:46;;;;;;;1.23;0.80;;;16.80;60.00;;;;;;5081355;28;20055;-69
2023/05/30 11:33:13;;;;;;;1.83;0.73;;;16.80;59.70;;;;;;5076770;28;20133;-69
2023/05/30 11:35:47;;;;;;;1.63;0.93;;;16.90;59.70;;;;;;5067611;28;20061;-69
2023/05/30 11:38:19;;;;;;;1.50;0.80;;;16.90;59.70;;;;;;5081920;28;20051;-69
2023/05/30 11:40:46;;;;;;;1.45;0.80;;;16.90;59.60;;;;;;5116171;27;20044;-69
2023/05/30 11:43:15;;;;;;;2.83;1.08;;;16.90;59.30;;;;;;5065582;28;20043;-69
2023/05/30 11:45:42;;;;;;;3.35;1.10;;;16.90;59.60;;;;;;5064876;28;20494;-69
2023/05/30 11:48:09;;;;;;;2.38;1.00;;;16.90;59.70;;;;;;5081993;28;20051;-69
2023/05/30 11:50:40;;;;;;;2.40;0.98;;;16.90;59.80;;;;;;5082881;28;20598;-69
2023/05/30 11:53:16;;;;;;;1.17;0.70;;;16.90;59.60;;;;;;5081068;28;20040;-69
2023/05/30 11:55:49;;;;;;;1.33;0.93;;;16.90;59.50;;;;;;5065794;28;20078;-69
2023/05/30 11:58:16;;;;;;;2.03;1.00;;;16.90;59.70;;;;;;5114445;27;20123;-66
2023/05/30 12:00:42;;;;;;;1.42;0.80;;;16.90;59.50;;;;;;5115406;27;20086;-67
2023/05/30 12:03:18;;;;;;;2.22;0.95;;;16.90;59.50;;;;;;5080674;28;20043;-66
2023/05/30 12:05:45;;;;;;;2.22;0.95;;;16.90;59.40;;;;;;5080104;28;20042;-67
2023/05/30 12:08:17;;;;;;;2.40;0.90;;;16.90;59.50;;;;;;5083572;28;20482;-67
2023/05/30 12:10:43;;;;;;;2.50;1.10;;;16.90;59.50;;;;;;5061444;28;20031;-67
2023/05/30 12:13:09;;;;;;;1.95;1.20;;;16.90;59.40;;;;;;5114985;27;20143;-67
2023/05/30 12:15:37;;;;;;;2.88;1.20;;;16.90;59.30;;;;;;5067235;28;20039;-67
2023/05/30 12:18:04;;;;;;;4.18;1.23;;;17.00;59.40;;;;;;5081042;28;20044;-69
2023/05/30 12:20:30;;;;;;;2.88;1.27;;;17.00;59.30;;;;;;5082155;28;20048;-69
2023/05/30 12:22:56;;;;;;;2.58;1.40;;;17.00;59.30;;;;;;5113101;27;20124;-69
2023/05/30 12:25:26;;;;;;;3.40;0.95;;;17.00;59.10;;;;;;5062822;28;20123;-69
2023/05/30 12:27:55;;;;;;;2.22;1.08;;;17.00;59.10;;;;;;5078766;28;20039;-69
2023/05/30 12:30:22;;;;;;;1.92;1.20;;;16.90;58.80;;;;;;5078188;28;20032;-69
2023/05/30 12:32:48;;;;;;;3.30;1.10;;;17.00;58.80;;;;;;5114505;27;20379;-70
2023/05/30 12:35:15;;;;;;;1.33;0.70;;;17.00;58.90;;;;;;5114718;27;20082;-69
2023/05/30 12:37:41;;;;;;;3.05;1.13;;;17.00;58.90;;;;;;5114952;27;20044;-69
2023/05/30 12:40:07;;;;;;;1.67;0.68;;;17.00;58.40;;;;;;5112796;27;20047;-69
2023/05/30 12:42:36;;;;;;;2.65;0.80;;;17.10;58.50;;;;;;5080013;28;20036;-69
2023/05/30 12:45:06;;;;;;;1.15;0.68;;;17.10;58.00;;;;;;5079833;28;20079;-69
2023/05/30 12:47:35;;;;;;;2.38;0.90;;;17.10;58.20;;;;;;5063155;28;20091;-67
2023/05/30 12:50:00;;;;;;;1.92;1.25;;;17.10;58.10;;;;;;5116682;27;20039;-69